Time;durP1;ratioP1;P1;durP2;ratioP2;P2;SDS_P1;SDS_P2;PMS_P1;PMS_P2;Temp;Humidity;BMP_temperature;BMP_pressure;BME280_temperature;BME280_humidity;BME280_pressure;Samples;Min_cycle;Max_cycle;Signal;HPM_P1;HPM_P2
2022/02/22 00:02:19;;;;;;;7.20;2.60;;;;;;;3.24;75.26;98524.09;5115339;28;20227;-68
2022/02/22 00:04:50;;;;;;;6.57;3.35;;;;;;;3.25;75.08;98530.84;5115118;28;20036;-68
2022/02/22 00:07:19;;;;;;;7.32;2.75;;;;;;;3.22;75.87;98530.81;5115300;28;20055;-71
2022/02/22 00:09:48;;;;;;;7.67;3.47;;;;;;;3.20;76.06;98535.00;5115168;28;20493;-71
2022/02/22 00:12:17;;;;;;;7.88;3.67;;;;;;;3.17;75.68;98537.47;5115051;28;20046;-71
2022/02/22 00:14:46;;;;;;;8.30;3.10;;;;;;;3.16;75.57;98530.75;5114982;28;20050;-69
2022/02/22 00:17:15;;;;;;;8.13;2.53;;;;;;;3.12;75.46;98534.91;5115021;28;20035;-71
2022/02/22 00:19:44;;;;;;;;;;;;;;;3.07;75.53;98536.53;5081150;28;20287;-68
2022/02/22 00:22:15;;;;;;;7.13;3.17;;;;;;;3.10;75.77;98535.72;5114923;28;19927;-71
2022/02/22 00:24:46;;;;;;;7.28;3.55;;;;;;;3.10;76.37;98536.56;5114763;28;20485;-69
2022/02/22 00:27:15;;;;;;;7.83;3.77;;;;;;;3.15;75.57;98549.22;5096681;28;20047;-68
2022/02/22 00:29:44;;;;;;;8.07;4.07;;;;;;;3.17;76.58;98540.00;5097222;28;20032;-71
2022/02/22 00:32:13;;;;;;;5.95;3.33;;;;;;;3.20;76.33;98543.41;5115518;28;20534;-71
2022/02/22 00:34:42;;;;;;;7.45;3.70;;;;;;;3.31;76.36;98553.59;5114697;28;20040;-70
2022/02/22 00:37:11;;;;;;;8.33;3.40;;;;;;;3.36;76.13;98554.47;5114452;28;20070;-71
2022/02/22 00:39:42;;;;;;;;;;;;;;;3.35;75.76;98553.66;5115585;28;20392;-70
2022/02/22 00:42:11;;;;;;;7.40;2.88;;;;;;;3.35;75.32;98553.66;5115208;28;19993;-71
2022/02/22 00:44:40;;;;;;;5.40;2.80;;;;;;;3.36;75.47;98555.31;5114465;28;20050;-69
2022/02/22 00:47:09;;;;;;;6.40;2.35;;;;;;;3.39;75.92;98551.97;5114740;28;20838;-71
2022/02/22 00:49:38;;;;;;;8.93;3.50;;;;;;;3.39;75.38;98559.53;5114764;28;20067;-69
2022/02/22 00:52:07;;;;;;;4.25;2.35;;;;;;;3.38;75.90;98567.97;5114383;28;20067;-72
2022/02/22 00:54:36;;;;;;;9.18;3.17;;;;;;;3.41;76.29;98547.78;5114368;28;20047;-71
2022/02/22 00:57:07;;;;;;;6.53;2.90;;;;;;;3.31;75.79;98563.69;5114618;28;20035;-71
2022/02/22 00:59:36;;;;;;;6.03;2.95;;;;;;;3.23;76.05;98568.66;5114295;28;20097;-68
2022/02/22 01:02:06;;;;;;;5.40;2.83;;;;;;;3.14;76.63;98566.00;5114219;28;20042;-68
2022/02/22 01:04:35;;;;;;;9.00;3.22;;;;;;;3.09;76.84;98570.19;5114707;28;20066;-70
2022/02/22 01:07:04;;;;;;;6.13;3.25;;;;;;;3.16;77.19;98564.38;5113414;28;20054;-70
2022/02/22 01:09:34;;;;;;;6.97;3.10;;;;;;;3.21;76.99;98565.28;5114134;28;20134;-69
2022/02/22 01:12:03;;;;;;;7.43;3.05;;;;;;;3.21;77.60;98569.47;5114076;28;20039;-71
2022/02/22 01:14:34;;;;;;;5.85;3.10;;;;;;;3.12;76.97;98579.44;5096350;28;20040;-71
2022/02/22 01:17:04;;;;;;;8.82;3.40;;;;;;;3.06;77.01;98585.25;5114580;28;20040;-69
2022/02/22 01:19:33;;;;;;;;;;;;;;;3.10;77.38;98591.16;5079826;28;20043;-68
2022/02/22 01:22:02;;;;;;;8.35;3.28;;;;;;;3.13;77.58;98596.25;5114615;28;19920;-69
2022/02/22 01:24:32;;;;;;;3.97;2.07;;;;;;;3.10;77.93;98596.22;5113904;28;20051;-68
2022/02/22 01:27:04;;;;;;;9.25;3.17;;;;;;;3.00;78.37;98599.47;5080079;28;20065;-70
2022/02/22 01:29:35;;;;;;;8.32;3.50;;;;;;;3.02;78.68;98603.72;5096079;28;20101;-69
2022/02/22 01:32:05;;;;;;;15.80;4.03;;;;;;;3.06;78.42;98600.38;5113906;28;20048;-71
2022/02/22 01:34:35;;;;;;;9.38;3.08;;;;;;;3.15;78.11;98604.66;5113904;28;20043;-68
2022/02/22 01:37:06;;;;;;;9.35;3.38;;;;;;;3.22;78.46;98602.22;5113940;28;20052;-69
2022/02/22 01:39:35;;;;;;;6.93;2.80;;;;;;;3.29;77.37;98604.00;5114248;28;20036;-68
2022/02/22 01:42:05;;;;;;;8.57;3.03;;;;;;;3.29;77.54;98598.94;5113798;28;20085;-71
2022/02/22 01:44:35;;;;;;;;;;;;;;;3.36;77.88;98604.88;5114777;28;20276;-68
2022/02/22 01:47:05;;;;;;;5.88;2.50;;;;;;;3.44;77.94;98605.81;5114399;28;19926;-71
2022/02/22 01:49:35;;;;;;;6.82;2.53;;;;;;;3.45;77.39;98599.97;5113933;28;20481;-68
2022/02/22 01:52:05;;;;;;;5.63;2.60;;;;;;;3.44;77.75;98603.31;5114026;28;20042;-71
2022/02/22 01:54:35;;;;;;;7.55;2.83;;;;;;;3.50;78.05;98608.44;5113703;28;20050;-68
2022/02/22 01:57:05;;;;;;;5.20;2.17;;;;;;;3.45;77.72;98610.06;5113670;28;20047;-69
2022/02/22 01:59:35;;;;;;;;;;;;;;;3.45;77.30;98610.06;5113993;28;20043;-68
2022/02/22 02:02:05;;;;;;;6.40;2.15;;;;;;;3.46;77.28;98606.69;5113635;28;19924;-68
2022/02/22 02:04:34;;;;;;;7.50;2.53;;;;;;;3.48;77.33;98609.25;5113538;28;20070;-71
2022/02/22 02:07:17;;;;;;;4.32;1.63;;;;;;;3.58;77.64;98606.81;5068800;28;20075;-71
2022/02/22 02:09:45;;;;;;;5.38;1.95;;;;;;;3.70;77.46;98596.81;5113832;28;20376;-71
2022/02/22 02:12:16;;;;;;;5.28;2.08;;;;;;;3.70;77.59;98611.97;5095636;28;20051;-68
2022/02/22 02:14:46;;;;;;;3.70;1.20;;;;;;;3.73;77.83;98612.00;5113509;28;20048;-68
2022/02/22 02:17:16;;;;;;;2.08;1.00;;;;;;;4.03;78.30;98613.94;5113939;28;20040;-71
2022/02/22 02:19:45;;;;;;;2.15;1.08;;;;;;;4.12;77.42;98618.19;5117836;28;20392;-70
2022/02/22 02:22:16;;;;;;;3.28;1.17;;;;;;;4.24;77.93;98620.81;5117535;28;20086;-69
2022/02/22 02:24:45;;;;;;;0.98;0.70;;;;;;;4.35;77.67;98630.16;5117502;28;20074;-70
2022/02/22 02:27:14;;;;;;;3.50;0.97;;;;;;;4.42;77.61;98631.03;5117477;28;20032;-69
2022/02/22 02:29:44;;;;;;;3.17;0.90;;;;;;;4.49;77.37;98632.75;5117041;28;20276;-69
2022/02/22 02:32:13;;;;;;;2.65;1.00;;;;;;;4.57;77.64;98631.13;5117086;28;20143;-68
2022/02/22 02:34:43;;;;;;;0.83;0.60;;;;;;;4.52;77.78;98630.25;5117079;28;20055;-69
2022/02/22 02:37:11;;;;;;;2.40;0.95;;;;;;;4.58;77.53;98627.78;5116794;28;20292;-70
2022/02/22 02:39:42;;;;;;;1.40;0.80;;;;;;;4.58;77.19;98635.38;5116961;28;20386;-69
2022/02/22 02:42:11;;;;;;;2.25;0.60;;;;;;;4.57;77.98;98641.25;5117192;28;20071;-70
2022/02/22 02:44:40;;;;;;;2.60;1.10;;;;;;;4.54;77.92;98648.78;5116793;28;20039;-69
2022/02/22 02:47:09;;;;;;;;;;;;;;;4.45;78.26;98641.16;5117230;28;20059;-68
2022/02/22 02:49:38;;;;;;;1.08;0.50;;;;;;;4.53;78.76;98654.69;5116691;28;19923;-69
2022/02/22 02:52:08;;;;;;;2.13;1.05;;;;;;;4.64;78.04;98653.06;5117017;28;20044;-68
2022/02/22 02:54:37;;;;;;;1.42;1.00;;;;;;;4.70;78.43;98660.72;5116659;28;20048;-70
2022/02/22 02:57:08;;;;;;;2.20;0.90;;;;;;;4.78;77.83;98665.78;5116617;28;20043;-69
2022/02/22 02:59:37;;;;;;;1.60;0.98;;;;;;;4.89;77.85;98659.97;5117999;28;20365;-69
2022/02/22 03:02:06;;;;;;;1.23;0.87;;;;;;;4.98;77.39;98665.06;5116657;28;20046;-69
2022/02/22 03:04:35;;;;;;;1.30;0.70;;;;;;;5.04;77.23;98670.13;5116765;28;20040;-70
2022/02/22 03:07:05;;;;;;;2.05;1.00;;;;;;;5.07;77.21;98667.63;5116298;28;20286;-69
2022/02/22 03:09:34;;;;;;;3.38;1.00;;;;;;;5.10;76.38;98670.19;5116959;28;20054;-69
2022/02/22 03:12:03;;;;;;;1.75;0.85;;;;;;;5.12;76.67;98673.56;5116549;28;20039;-70
2022/02/22 03:14:34;;;;;;;4.05;1.10;;;;;;;5.15;76.53;98678.63;5098381;28;20047;-70
2022/02/22 03:17:03;;;;;;;2.92;1.20;;;;;;;5.22;76.08;98685.41;5116581;28;20044;-69
2022/02/22 03:19:33;;;;;;;2.83;0.82;;;;;;;5.25;75.80;98698.09;5116489;28;20221;-68
2022/02/22 03:22:03;;;;;;;2.70;1.17;;;;;;;5.26;75.76;98699.75;5116414;28;20070;-70
2022/02/22 03:24:35;;;;;;;1.55;0.70;;;;;;;5.29;75.56;98697.25;5097947;28;20051;-68
2022/02/22 03:27:04;;;;;;;0.63;0.60;;;;;;;5.30;75.52;98709.03;5115932;28;20039;-68
2022/02/22 03:29:37;;;;;;;3.05;0.90;;;;;;;5.30;75.36;98709.03;5115286;28;20481;-70
2022/02/22 03:32:08;;;;;;;0.88;0.57;;;;;;;5.31;75.13;98714.94;5097744;28;20074;-68
2022/02/22 03:34:37;;;;;;;0.70;0.52;;;;;;;5.33;75.53;98726.75;5115923;28;20127;-71
2022/02/22 03:37:06;;;;;;;1.23;0.70;;;;;;;5.31;75.11;98725.91;5115496;28;20538;-69
2022/02/22 03:39:35;;;;;;;1.75;0.80;;;;;;;5.31;75.42;98720.84;5116673;28;20480;-68
2022/02/22 03:42:04;;;;;;;1.77;0.90;;;;;;;5.34;75.05;98720.88;5115979;28;20044;-70
2022/02/22 03:44:33;;;;;;;2.17;0.70;;;;;;;5.36;75.09;98729.31;5115691;28;20085;-71
2022/02/22 03:47:04;;;;;;;1.63;0.70;;;;;;;5.37;74.86;98730.97;5115574;28;20493;-69
2022/02/22 03:49:34;;;;;;;1.02;0.80;;;;;;;5.38;74.81;98742.81;5115953;28;20064;-69
2022/02/22 03:52:03;;;;;;;1.47;0.87;;;;;;;5.38;74.63;98745.34;5115467;28;20047;-69
2022/02/22 03:54:32;;;;;;;1.10;0.80;;;;;;;5.37;74.78;98736.03;5115767;28;20307;-69
2022/02/22 03:57:01;;;;;;;2.87;0.80;;;;;;;5.38;74.58;98745.34;5115473;28;20051;-70
2022/02/22 03:59:30;;;;;;;1.73;0.83;;;;;;;5.39;74.56;98744.50;5115374;28;20280;-69
2022/02/22 04:01:59;;;;;;;1.00;0.80;;;;;;;5.44;74.44;98757.19;5115687;28;20059;-69
2022/02/22 04:04:30;;;;;;;1.42;0.80;;;;;;;5.33;74.11;98736.88;5115573;28;20035;-68
2022/02/22 04:06:59;;;;;;;1.10;0.73;;;;;;;5.43;74.48;98763.91;5115217;28;20127;-70
2022/02/22 04:09:28;;;;;;;1.50;0.95;;;;;;;5.42;73.93;98753.81;5115184;28;20056;-71
2022/02/22 04:11:57;;;;;;;1.05;0.77;;;;;;;5.39;73.74;98759.69;5115159;28;20554;-70
2022/02/22 04:14:26;;;;;;;2.23;1.33;;;;;;;5.20;72.88;98737.69;5115371;28;20037;-69
2022/02/22 04:16:55;;;;;;;1.45;0.80;;;;;;;5.37;72.55;98774.00;5115004;28;20554;-71
2022/02/22 04:19:24;;;;;;;1.73;1.10;;;;;;;5.42;71.83;98779.94;5115006;28;20074;-68
2022/02/22 04:21:55;;;;;;;0.80;0.70;;;;;;;5.40;71.81;98770.63;5115297;28;20043;-70
2022/02/22 04:24:24;;;;;;;3.13;1.23;;;;;;;5.42;71.12;98777.38;5115213;28;20134;-70
2022/02/22 04:26:53;;;;;;;1.58;0.90;;;;;;;5.41;70.89;98775.72;5096989;28;20100;-71
2022/02/22 04:29:22;;;;;;;2.08;1.00;;;;;;;5.36;70.74;98774.00;5096840;28;20497;-69
2022/02/22 04:31:52;;;;;;;2.55;1.00;;;;;;;5.32;70.85;98793.38;5063821;28;20054;-71
2022/02/22 04:34:21;;;;;;;1.65;0.90;;;;;;;5.31;70.58;98793.34;5114717;28;20058;-70
2022/02/22 04:36:50;;;;;;;1.83;0.90;;;;;;;5.31;70.69;98811.06;5114335;28;20056;-71
2022/02/22 04:39:20;;;;;;;1.33;0.57;;;;;;;5.32;71.05;98818.69;5096596;28;20031;-69
2022/02/22 04:41:51;;;;;;;1.58;1.00;;;;;;;5.30;70.84;98820.31;5114671;28;20047;-71
2022/02/22 04:44:20;;;;;;;1.70;1.10;;;;;;;5.29;70.50;98828.78;5114476;28;20075;-69
2022/02/22 04:46:49;;;;;;;1.70;1.02;;;;;;;5.29;70.24;98831.31;5114659;28;20419;-71
2022/02/22 04:49:19;;;;;;;1.58;0.80;;;;;;;5.28;70.09;98832.13;5114374;28;20082;-69
2022/02/22 04:51:48;;;;;;;1.27;0.95;;;;;;;5.27;69.94;98830.44;5114744;28;20053;-71
2022/02/22 04:54:17;;;;;;;2.03;0.90;;;;;;;5.24;69.60;98834.63;5114336;28;20500;-70
2022/02/22 04:56:48;;;;;;;2.03;1.00;;;;;;;5.19;69.70;98826.16;5114654;28;20554;-69
2022/02/22 04:59:17;;;;;;;2.47;1.13;;;;;;;5.14;69.77;98831.19;5114278;28;20051;-71
2022/02/22 05:01:46;;;;;;;2.20;0.93;;;;;;;5.09;69.52;98829.47;5114261;28;20047;-69
2022/02/22 05:04:15;;;;;;;3.58;1.27;;;;;;;5.02;69.41;98823.50;5114317;28;20439;-71
2022/02/22 05:06:44;;;;;;;2.13;1.10;;;;;;;4.95;69.03;98826.84;5114088;28;20047;-68
2022/02/22 05:09:13;;;;;;;2.03;0.90;;;;;;;4.91;68.81;98815.03;5114249;28;20547;-69
2022/02/22 05:11:42;;;;;;;1.70;0.60;;;;;;;4.87;68.69;98822.56;5114463;28;20039;-71
2022/02/22 05:14:13;;;;;;;1.33;0.88;;;;;;;4.83;69.01;98811.56;5114401;28;20046;-69
2022/02/22 05:16:42;;;;;;;1.73;0.80;;;;;;;4.75;68.73;98813.22;5114046;28;20036;-71
2022/02/22 05:19:11;;;;;;;1.10;0.60;;;;;;;4.73;69.25;98819.91;5114393;28;20039;-68
2022/02/22 05:21:41;;;;;;;1.00;0.70;;;;;;;4.71;68.62;98819.06;5079480;28;20284;-71
2022/02/22 05:24:10;;;;;;;1.27;0.52;;;;;;;4.68;68.82;98829.13;5096049;28;20036;-71
2022/02/22 05:26:39;;;;;;;2.38;0.73;;;;;;;4.63;68.51;98823.22;5113845;28;20040;-72
2022/02/22 05:29:15;;;;;;;2.35;1.55;;;;;;;4.65;68.11;98837.53;5113998;28;20497;-69
2022/02/22 05:31:44;;;;;;;1.08;0.70;;;;;;;4.65;67.91;98847.63;5114232;28;20052;-69
2022/02/22 05:34:13;;;;;;;3.47;0.82;;;;;;;4.65;68.11;98851.88;5113874;28;20493;-72
2022/02/22 05:36:43;;;;;;;0.77;0.55;;;;;;;4.63;68.30;98868.69;5113656;28;20047;-68
2022/02/22 05:39:12;;;;;;;1.15;0.68;;;;;;;4.62;68.25;98867.00;5114198;28;20099;-69
2022/02/22 05:41:41;;;;;;;1.95;1.10;;;;;;;4.61;67.75;98870.34;5113814;28;20044;-72
2022/02/22 05:44:11;;;;;;;0.93;0.55;;;;;;;4.59;67.97;98877.91;5095980;28;20071;-68
2022/02/22 05:46:42;;;;;;;1.33;0.60;;;;;;;4.58;67.90;98881.25;5114017;28;20032;-70
2022/02/22 05:49:13;;;;;;;0.85;0.68;;;;;;;4.57;67.81;98893.88;5114052;28;20558;-69
2022/02/22 05:51:42;;;;;;;1.30;0.60;;;;;;;4.54;67.34;98893.84;5113799;28;20412;-69
2022/02/22 05:54:10;;;;;;;4.10;1.00;;;;;;;4.58;67.67;98898.13;5117422;28;20331;-71
2022/02/22 05:56:40;;;;;;;2.03;1.10;;;;;;;4.57;67.40;98904.00;5118014;28;20043;-70
2022/02/22 05:59:09;;;;;;;2.72;0.80;;;;;;;4.56;67.39;98907.34;5117767;28;20042;-69
2022/02/22 06:01:38;;;;;;;1.60;0.70;;;;;;;4.50;67.73;98907.28;5118060;28;20489;-72
2022/02/22 06:04:09;;;;;;;1.08;0.63;;;;;;;4.48;67.86;98919.06;5099639;28;20051;-71
2022/02/22 06:06:39;;;;;;;1.85;1.10;;;;;;;4.48;67.61;98926.63;5117452;28;20104;-70
2022/02/22 06:09:09;;;;;;;3.47;1.48;;;;;;;4.49;67.38;98930.84;5117906;28;20039;-69
2022/02/22 06:11:38;;;;;;;2.10;0.75;;;;;;;4.55;67.60;98920.81;5117555;28;20047;-72
2022/02/22 06:14:07;;;;;;;3.90;0.70;;;;;;;4.61;67.16;98930.97;5117753;28;20135;-70
2022/02/22 06:16:36;;;;;;;1.88;0.90;;;;;;;4.62;67.32;98938.59;5117423;28;20284;-70
2022/02/22 06:19:05;;;;;;;1.00;0.63;;;;;;;4.67;66.79;98936.97;5117443;28;20114;-73
2022/02/22 06:21:36;;;;;;;1.85;0.90;;;;;;;4.68;66.93;98946.22;5117600;28;20097;-71
2022/02/22 06:24:05;;;;;;;1.52;0.88;;;;;;;4.73;66.90;98951.31;5117540;28;20051;-70
2022/02/22 06:26:35;;;;;;;1.42;0.70;;;;;;;4.81;67.50;98954.78;5117212;28;20105;-73
2022/02/22 06:29:05;;;;;;;1.63;0.90;;;;;;;4.93;67.10;98962.50;5117252;28;20035;-70
2022/02/22 06:31:34;;;;;;;2.17;1.02;;;;;;;5.16;66.57;98963.56;5117453;28;20319;-73
2022/02/22 06:34:04;;;;;;;1.35;0.55;;;;;;;5.34;66.77;98971.31;5116930;28;20047;-71
2022/02/22 06:36:35;;;;;;;1.83;0.95;;;;;;;5.53;66.52;98979.03;5117036;28;20104;-70
2022/02/22 06:39:04;;;;;;;1.92;1.20;;;;;;;5.65;66.03;98974.06;5117349;28;20104;-71
2022/02/22 06:41:33;;;;;;;3.60;1.00;;;;;;;5.74;65.72;98979.19;5117268;28;20032;-73
2022/02/22 06:44:05;;;;;;;2.70;1.00;;;;;;;5.84;65.07;98989.44;5117201;28;20038;-71
2022/02/22 06:46:34;;;;;;;4.05;1.58;;;;;;;5.98;64.43;98992.06;5117123;28;20078;-70
2022/02/22 06:49:04;;;;;;;4.57;0.95;;;;;;;6.11;64.79;99001.44;5099031;28;20070;-71
2022/02/22 06:51:33;;;;;;;2.22;1.10;;;;;;;6.21;64.05;99008.25;5116642;28;20040;-71
2022/02/22 06:54:04;;;;;;;;;;;;;;;6.33;63.65;99007.47;5117099;28;20044;-70
2022/02/22 06:56:32;;;;;;;3.35;0.80;;;;;;;6.26;63.61;99024.34;5116645;28;19919;-73
2022/02/22 06:59:03;;;;;;;4.88;1.10;;;;;;;6.13;63.90;99030.16;5116645;28;20058;-73
2022/02/22 07:01:32;;;;;;;2.72;0.93;;;;;;;5.95;64.21;99024.97;5116480;28;20040;-71
2022/02/22 07:04:01;;;;;;;1.97;1.00;;;;;;;5.93;63.94;99040.13;5115638;27;20044;-69
2022/02/22 07:06:30;;;;;;;2.03;1.10;;;;;;;5.85;64.17;99038.41;5116443;28;20036;-72
2022/02/22 07:08:59;;;;;;;2.88;0.90;;;;;;;5.84;64.68;99051.84;5116321;28;20306;-73
2022/02/22 07:11:30;;;;;;;3.83;1.20;;;;;;;5.81;64.82;99056.88;5116525;28;20048;-72
2022/02/22 07:13:59;;;;;;;3.28;1.00;;;;;;;5.74;65.22;99055.13;5116617;28;20047;-73
2022/02/22 07:16:30;;;;;;;2.28;1.10;;;;;;;5.90;64.89;99057.00;5097986;28;20043;-71
2022/02/22 07:18:59;;;;;;;1.75;1.08;;;;;;;6.07;64.97;99065.56;5116791;28;20411;-73
2022/02/22 07:21:28;;;;;;;1.25;0.75;;;;;;;6.17;64.72;99062.25;5116032;28;20489;-69
2022/02/22 07:23:57;;;;;;;2.88;1.30;;;;;;;6.27;64.17;99070.75;5116224;28;20050;-70
2022/02/22 07:26:26;;;;;;;2.95;1.00;;;;;;;6.50;63.84;99072.59;5116370;28;20044;-71
2022/02/22 07:28:55;;;;;;;2.08;1.05;;;;;;;6.70;63.75;99071.03;5115885;28;20516;-73
2022/02/22 07:31:24;;;;;;;1.40;0.70;;;;;;;6.92;63.41;99066.88;5116318;28;20047;-72
2022/02/22 07:33:55;;;;;;;0.85;0.70;;;;;;;7.18;62.24;99074.56;5116196;28;20283;-69
2022/02/22 07:36:24;;;;;;;3.08;0.85;;;;;;;7.48;62.17;99081.44;5115881;28;20044;-69
2022/02/22 07:38:53;;;;;;;2.30;0.85;;;;;;;7.70;61.41;99090.78;5115610;28;20079;-69
2022/02/22 07:41:23;;;;;;;1.50;0.70;;;;;;;7.79;61.65;99091.63;5115742;28;20035;-71
2022/02/22 07:43:52;;;;;;;1.48;0.73;;;;;;;7.91;60.61;99090.78;5115682;28;20066;-72
2022/02/22 07:46:21;;;;;;;0.75;0.60;;;;;;;7.80;60.50;99108.56;5116148;28;20036;-69
2022/02/22 07:48:50;;;;;;;1.40;0.63;;;;;;;7.75;60.41;99110.25;5115339;28;20397;-69
2022/02/22 07:51:21;;;;;;;1.50;0.80;;;;;;;7.80;59.63;99113.63;5116192;28;20039;-69
2022/02/22 07:53:50;;;;;;;1.80;1.17;;;;;;;7.87;59.82;99110.25;5114369;28;20085;-72
2022/02/22 07:56:19;;;;;;;2.17;1.10;;;;;;;7.79;60.01;99116.19;5115620;28;20040;-69
2022/02/22 07:58:48;;;;;;;2.72;1.33;;;;;;;7.79;60.33;99127.19;5115418;28;20034;-70
2022/02/22 08:01:17;;;;;;;4.32;1.60;;;;;;;7.75;59.42;99129.72;5080602;28;20109;-69
2022/02/22 08:03:49;;;;;;;3.55;1.20;;;;;;;7.66;59.69;99134.78;5115351;28;20043;-71
2022/02/22 08:06:20;;;;;;;3.28;1.15;;;;;;;7.59;59.73;99136.47;5113658;28;20577;-71
2022/02/22 08:08:50;;;;;;;1.65;1.00;;;;;;;7.48;59.88;99134.75;5107367;28;20056;-69
2022/02/22 08:11:19;;;;;;;2.88;1.40;;;;;;;7.62;60.43;99149.16;5060140;28;20047;-69
2022/02/22 08:13:52;;;;;;;3.70;0.90;;;;;;;7.68;60.23;99148.34;5095089;28;20473;-69
2022/02/22 08:16:21;;;;;;;2.17;1.02;;;;;;;7.70;60.41;99155.09;5094464;28;20052;-69
2022/02/22 08:18:52;;;;;;;3.53;0.98;;;;;;;7.63;60.37;99153.38;5076686;28;20097;-69
2022/02/22 08:21:23;;;;;;;3.03;1.02;;;;;;;7.67;59.70;99156.78;5094841;28;20048;-71
2022/02/22 08:23:54;;;;;;;2.17;1.00;;;;;;;7.65;60.04;99169.50;5094660;28;20043;-69
2022/02/22 08:26:23;;;;;;;5.33;1.00;;;;;;;7.61;60.35;99166.91;5094414;28;20091;-71
2022/02/22 08:28:52;;;;;;;1.23;0.60;;;;;;;7.64;59.74;99177.94;5094513;28;20044;-71
2022/02/22 08:31:21;;;;;;;1.17;0.77;;;;;;;7.68;59.54;99174.56;5076569;28;20388;-72
2022/02/22 08:33:52;;;;;;;5.20;1.35;;;;;;;7.67;60.11;99172.88;5094385;28;20048;-69
2022/02/22 08:36:23;;;;;;;2.30;0.90;;;;;;;7.54;60.38;99171.16;5111444;28;20040;-71
2022/02/22 08:38:52;;;;;;;12.68;1.52;;;;;;;7.46;60.49;99182.97;5096249;28;20044;-72
2022/02/22 08:41:21;;;;;;;1.63;0.75;;;;;;;7.39;61.23;99187.16;5107838;28;20105;-69
2022/02/22 08:43:51;;;;;;;1.63;0.80;;;;;;;7.34;61.27;99193.09;5076231;28;20091;-72
2022/02/22 08:46:22;;;;;;;1.60;0.75;;;;;;;7.25;60.50;99195.56;5094738;28;20113;-69
2022/02/22 08:48:51;;;;;;;2.13;0.75;;;;;;;7.26;60.84;99195.59;5094037;28;20047;-69
2022/02/22 08:51:20;;;;;;;2.08;1.00;;;;;;;7.38;60.16;99212.56;5094053;28;20036;-70
2022/02/22 08:53:51;;;;;;;1.67;0.95;;;;;;;7.50;60.41;99210.06;5094593;28;20083;-70
2022/02/22 08:56:20;;;;;;;2.45;1.17;;;;;;;7.59;60.34;99220.25;5094314;28;20139;-70
2022/02/22 08:58:49;;;;;;;1.75;0.90;;;;;;;7.58;60.23;99213.50;5010250;28;20079;-71
2022/02/22 09:01:19;;;;;;;2.37;1.10;;;;;;;7.63;59.23;99216.88;5093860;28;20032;-70
2022/02/22 09:03:48;;;;;;;2.30;0.70;;;;;;;7.96;58.89;99222.06;5043312;28;20457;-71
2022/02/22 09:06:17;;;;;;;1.25;0.65;;;;;;;8.23;59.94;99222.97;5093810;28;20040;-71
2022/02/22 09:08:46;;;;;;;2.03;1.03;;;;;;;8.59;58.29;99225.56;5093672;28;20093;-72
2022/02/22 09:11:17;;;;;;;2.30;1.00;;;;;;;8.99;57.51;99229.75;5092437;28;20498;-72
2022/02/22 09:13:46;;;;;;;1.70;0.90;;;;;;;9.36;56.88;99223.69;5093767;28;20050;-70
2022/02/22 09:16:15;;;;;;;2.57;1.00;;;;;;;9.71;56.52;99230.38;5094632;28;20040;-71
2022/02/22 09:18:44;;;;;;;1.67;1.05;;;;;;;10.09;55.35;99238.66;5107207;28;20031;-72
2022/02/22 09:21:13;;;;;;;2.63;1.33;;;;;;;9.99;55.64;99232.75;5085700;28;20070;-71
2022/02/22 09:23:42;;;;;;;4.07;1.17;;;;;;;9.76;55.62;99233.75;5093548;28;20054;-71
2022/02/22 09:26:11;;;;;;;1.20;0.70;;;;;;;9.92;54.97;99230.25;5093613;28;20059;-71
2022/02/22 09:28:45;;;;;;;1.60;0.80;;;;;;;10.25;54.18;99235.19;5112157;28;20055;-72
2022/02/22 09:31:14;;;;;;;1.92;0.93;;;;;;;10.42;54.05;99232.50;5099585;28;20048;-72
2022/02/22 09:33:44;;;;;;;2.45;1.08;;;;;;;10.69;54.28;99243.34;5111816;28;20032;-69
2022/02/22 09:36:13;;;;;;;5.43;1.70;;;;;;;10.89;53.06;99245.75;5110517;28;20071;-69
2022/02/22 09:38:42;;;;;;;2.90;1.30;;;;;;;11.08;52.12;99247.25;5113049;28;20060;-69
2022/02/22 09:41:15;;;;;;;1.67;0.95;;;;;;;11.27;51.80;99248.78;5112580;28;20039;-70
2022/02/22 09:43:46;;;;;;;3.08;0.80;;;;;;;11.24;52.00;99253.03;5114112;28;20081;-70
2022/02/22 09:46:16;;;;;;;4.00;1.50;;;;;;;10.86;52.33;99248.31;5113737;28;20130;-70
2022/02/22 09:48:45;;;;;;;3.35;1.08;;;;;;;10.56;52.82;99254.50;5113674;28;20127;-69
2022/02/22 09:51:15;;;;;;;3.10;0.93;;;;;;;10.26;53.22;99249.63;5113797;28;20072;-71
2022/02/22 09:53:44;;;;;;;1.50;0.90;;;;;;;9.96;53.41;99262.50;5113632;28;20050;-71
2022/02/22 09:56:17;;;;;;;2.25;0.98;;;;;;;9.66;54.19;99257.56;5113850;28;20044;-69
2022/02/22 09:58:47;;;;;;;1.98;1.02;;;;;;;9.44;53.72;99267.84;5095375;28;20509;-69
2022/02/22 10:01:16;;;;;;;2.20;1.00;;;;;;;9.33;54.52;99264.44;5113695;28;20397;-70
2022/02/22 10:03:56;;;;;;;1.88;1.00;;;;;;;9.37;54.41;99266.16;5113855;28;20049;-70
2022/02/22 10:06:26;;;;;;;3.42;1.13;;;;;;;9.25;55.37;99280.59;5113951;28;20508;-70
2022/02/22 10:08:55;;;;;;;1.63;1.10;;;;;;;9.18;56.10;99284.88;5113479;28;20032;-70
2022/02/22 10:11:25;;;;;;;;;;;;;;;9.08;55.74;99293.38;5114863;28;20135;-69
2022/02/22 10:14:00;;;;;;;2.47;1.20;;;;;;;8.95;55.91;99291.66;5113813;28;19926;-70
2022/02/22 10:16:40;;;;;;;1.40;0.80;;;;;;;8.83;56.92;99291.66;5113901;28;20051;-70
2022/02/22 10:19:22;;;;;;;1.60;0.90;;;;;;;8.86;56.67;99294.22;5095657;28;20061;-70
2022/02/22 10:21:56;;;;;;;1.52;0.93;;;;;;;8.94;56.48;99299.31;5113479;28;20066;-70
2022/02/22 10:24:27;;;;;;;2.38;0.98;;;;;;;8.84;57.22;99255.22;5113421;28;20067;-69
2022/02/22 10:27:01;;;;;;;2.35;1.13;;;;;;;9.21;57.22;99299.28;5113482;28;20040;-69
2022/02/22 10:29:34;;;;;;;1.92;1.00;;;;;;;9.27;56.67;99295.03;5113504;28;20042;-70
2022/02/22 10:32:11;;;;;;;1.70;0.82;;;;;;;9.67;56.53;99305.13;5113699;28;20047;-69
2022/02/22 10:34:41;;;;;;;2.38;1.10;;;;;;;10.10;55.05;99299.00;5113308;28;20126;-72
2022/02/22 10:37:10;;;;;;;;;;;;;;;10.76;54.31;99308.81;5113941;28;20055;-72
2022/02/22 10:39:39;;;;;;;2.63;1.05;;;;;;;10.90;53.10;99302.72;5115816;28;19930;-71
2022/02/22 10:42:09;;;;;;;1.63;0.80;;;;;;;11.06;52.72;99311.97;5117270;28;20048;-70
2022/02/22 10:44:41;;;;;;;1.27;0.90;;;;;;;10.72;53.15;99309.66;5116908;28;20040;-70
2022/02/22 10:47:19;;;;;;;1.63;0.90;;;;;;;10.74;53.02;99320.75;5116833;28;20048;-69
2022/02/22 10:49:49;;;;;;;3.03;1.05;;;;;;;10.89;52.58;99317.22;5110539;28;20071;-73
2022/02/22 10:52:30;;;;;;;1.35;0.85;;;;;;;10.52;52.20;99315.78;5114103;28;20067;-70
2022/02/22 10:55:01;;;;;;;1.95;1.20;;;;;;;10.70;52.31;99320.78;5117284;28;20427;-70
2022/02/22 10:57:32;;;;;;;1.52;0.80;;;;;;;11.16;52.23;99311.00;5116423;28;20043;-69
2022/02/22 11:00:05;;;;;;;2.30;1.10;;;;;;;10.80;51.55;99319.00;5116563;28;20043;-70
2022/02/22 11:02:34;;;;;;;1.45;0.95;;;;;;;10.93;51.57;99323.16;5116763;28;20143;-69
2022/02/22 11:05:24;;;;;;;3.72;1.08;;;;;;;11.00;51.01;99330.75;5116785;28;20393;-71
2022/02/22 11:07:53;;;;;;;2.72;1.00;;;;;;;11.03;50.74;99324.78;5116646;28;20043;-70
2022/02/22 11:10:28;;;;;;;2.08;1.08;;;;;;;10.96;50.54;99338.44;5116445;28;20048;-71
2022/02/22 11:13:01;;;;;;;1.60;0.90;;;;;;;10.78;51.50;99340.28;5116626;28;20134;-70
2022/02/22 11:15:37;;;;;;;1.45;0.80;;;;;;;10.55;51.87;99341.28;5116349;28;20051;-71
2022/02/22 11:18:17;;;;;;;2.15;0.90;;;;;;;10.37;52.31;99342.22;5116055;28;20049;-69
2022/02/22 11:20:47;;;;;;;2.40;0.90;;;;;;;10.25;52.50;99337.19;5116250;28;20089;-70
2022/02/22 11:23:24;;;;;;;;;;;;;;;10.11;52.33;99333.84;5116723;28;20390;-70
2022/02/22 11:26:09;;;;;;;3.83;1.00;;;;;;;10.07;52.85;99337.25;5116041;28;19977;-70
2022/02/22 11:28:40;;;;;;;1.45;0.80;;;;;;;10.00;53.34;99336.44;5115980;28;20048;-69
2022/02/22 11:31:13;;;;;;;2.42;1.10;;;;;;;9.91;53.35;99330.53;5116584;28;20385;-69
2022/02/22 11:33:45;;;;;;;2.40;1.55;;;;;;;9.86;53.06;99337.34;5116258;28;20130;-69
2022/02/22 11:36:26;;;;;;;3.35;1.17;;;;;;;9.85;53.96;99338.19;5116536;28;20046;-69
2022/02/22 11:38:55;;;;;;;6.05;1.70;;;;;;;10.03;53.76;99343.19;5115980;28;20051;-69
2022/02/22 11:41:40;;;;;;;4.22;0.73;;;;;;;10.69;53.13;99337.78;5116120;28;20044;-69
2022/02/22 11:44:16;;;;;;;2.15;1.35;;;;;;;10.66;52.78;99342.91;5115711;28;20100;-69
2022/02/22 11:46:50;;;;;;;1.38;0.77;;;;;;;10.38;52.80;99346.50;5115778;28;20062;-69
2022/02/22 11:49:25;;;;;;;1.25;0.80;;;;;;;10.17;52.25;99349.16;5115944;28;20113;-69
2022/02/22 11:52:10;;;;;;;1.67;1.02;;;;;;;10.01;52.93;99362.75;5115300;28;20123;-70
2022/02/22 11:54:39;;;;;;;2.90;1.10;;;;;;;9.92;54.07;99367.91;5109386;28;20127;-70
2022/02/22 11:57:10;;;;;;;1.52;1.00;;;;;;;9.77;55.44;99363.69;5093118;28;20508;-69
2022/02/22 11:59:48;;;;;;;2.15;1.00;;;;;;;9.82;55.60;99376.41;5115598;28;20070;-70